Time;durP1;ratioP1;P1;durP2;ratioP2;P2;SDS_P1;SDS_P2;PMS_P1;PMS_P2;Temp;Humidity;BMP_temperature;BMP_pressure;BME280_temperature;BME280_humidity;BME280_pressure;Samples;Min_cycle;Max_cycle;Signal;HPM_P1;HPM_P2
2023/07/29 00:00:46;;;;;;;;;;;21.20;99.90;;;;;;7339310;19;109155;-85
2023/07/29 00:03:13;;;;;;;;;;;21.20;99.90;;;;;;7341505;19;113551;-84
2023/07/29 00:05:40;;;;;;;;;;;21.20;99.90;;;;;;7334351;19;111598;-85
2023/07/29 00:08:08;;;;;;;;;;;21.20;99.90;;;;;;7335804;19;111698;-85
2023/07/29 00:10:38;;;;;;;;;;;21.20;99.90;;;;;;7338198;19;108659;-83
2023/07/29 00:13:05;;;;;;;;;;;21.20;99.90;;;;;;7339647;19;109315;-84
2023/07/29 00:15:32;;;;;;;;;;;21.20;99.90;;;;;;7336707;19;110831;-83
2023/07/29 00:18:00;;;;;;;;;;;21.10;99.90;;;;;;7339168;19;108842;-84
2023/07/29 00:20:27;;;;;;;;;;;21.10;99.90;;;;;;7336299;19;110548;-83
2023/07/29 00:22:55;;;;;;;;;;;21.10;99.90;;;;;;7337938;19;110537;-83
2023/07/29 00:25:22;;;;;;;;;;;21.10;99.90;;;;;;7344695;19;108762;-84
2023/07/29 00:27:49;;;;;;;;;;;21.10;99.90;;;;;;7339170;19;113100;-84
2023/07/29 00:30:16;;;;;;;;;;;21.00;99.90;;;;;;7336255;19;108658;-84
2023/07/29 00:32:46;;;;;;;;;;;21.00;99.90;;;;;;7340235;19;109649;-83
2023/07/29 00:35:13;;;;;;;;;;;21.00;99.90;;;;;;7335060;19;110450;-84
2023/07/29 00:37:40;;;;;;;;;;;21.00;99.90;;;;;;7337622;19;108986;-83
2023/07/29 00:40:14;;;;;;;;;;;20.90;99.90;;;;;;7338894;19;109113;-84
2023/07/29 00:42:42;;;;;;;;;;;20.90;99.90;;;;;;7338312;19;110292;-83
2023/07/29 00:45:12;;;;;;;;;;;20.90;99.90;;;;;;7338963;19;108955;-84
2023/07/29 00:47:40;;;;;;;;;;;20.90;99.90;;;;;;7344179;19;109187;-84
2023/07/29 01:01:11;;;;;;;;;;;20.70;99.90;;;;;;7335875;19;108912;-66
2023/07/29 01:03:38;;;;;;;;;;;20.60;99.90;;;;;;7331227;19;109426;-66
2023/07/29 01:06:11;;;;;;;;;;;20.60;99.90;;;;;;7335470;19;108971;-66
2023/07/29 01:08:44;;;;;;;;;;;20.60;99.90;;;;;;7339255;19;110145;-66
2023/07/29 01:11:12;;;;;;;;;;;20.60;99.90;;;;;;7338068;19;109725;-66
2023/07/29 01:13:43;;;;;;;;;;;20.60;99.90;;;;;;7335893;19;109348;-66
2023/07/29 01:16:15;;;;;;;;;;;20.50;99.90;;;;;;7334570;19;109536;-67
2023/07/29 01:18:44;;;;;;;;;;;20.50;99.90;;;;;;7334380;19;109085;-66
2023/07/29 01:21:12;;;;;;;;;;;20.50;99.90;;;;;;7331569;19;109137;-66
2023/07/29 01:23:39;;;;;;;;;;;20.50;99.90;;;;;;7331829;19;109034;-66
2023/07/29 01:26:06;;;;;;;;;;;20.40;99.90;;;;;;7337074;19;108508;-66
2023/07/29 01:28:34;;;;;;;;;;;20.40;99.90;;;;;;7335293;19;111050;-66
2023/07/29 01:31:02;;;;;;;;;;;20.40;99.90;;;;;;7340097;19;109159;-65
2023/07/29 01:33:33;;;;;;;;;;;20.30;99.90;;;;;;7334495;19;109880;-66
2023/07/29 01:36:06;;;;;;;;;;;20.30;99.90;;;;;;7332197;19;109384;-66
2023/07/29 01:38:35;;;;;;;;;;;20.30;99.90;;;;;;7331150;19;108653;-66
2023/07/29 01:41:02;;;;;;;;;;;20.30;99.90;;;;;;7333949;19;108623;-65
2023/07/29 01:43:29;;;;;;;;;;;20.30;99.90;;;;;;7327574;19;110234;-65
2023/07/29 01:45:57;;;;;;;;;;;20.20;99.90;;;;;;7332585;19;110780;-65
2023/07/29 01:48:24;;;;;;;;;;;20.20;99.90;;;;;;7334941;19;109157;-65
2023/07/29 01:50:51;;;;;;;;;;;20.20;99.90;;;;;;7331709;19;110511;-65
2023/07/29 01:53:23;;;;;;;;;;;20.20;99.90;;;;;;7335349;19;118631;-65
2023/07/29 01:55:50;;;;;;;;;;;20.20;99.90;;;;;;7330413;19;110080;-65
2023/07/29 01:58:17;;;;;;;;;;;20.20;99.90;;;;;;7332005;19;109345;-65
2023/07/29 02:00:44;;;;;;;;;;;20.20;99.90;;;;;;7335463;19;109305;-65
2023/07/29 02:03:11;;;;;;;;;;;20.20;99.90;;;;;;7326945;19;109867;-64
2023/07/29 02:05:44;;;;;;;;;;;20.10;99.90;;;;;;7330309;19;110227;-65
2023/07/29 02:08:11;;;;;;;;;;;20.10;99.90;;;;;;7333835;19;108887;-65
2023/07/29 02:10:44;;;;;;;;;;;20.10;99.90;;;;;;7329026;19;110269;-65
2023/07/29 02:13:12;;;;;;;;;;;20.10;99.90;;;;;;7335189;19;109716;-65
2023/07/29 02:15:39;;;;;;;;;;;20.10;99.90;;;;;;7334451;19;109414;-65
2023/07/29 02:18:07;;;;;;;;;;;20.00;99.90;;;;;;7330952;19;108812;-65
2023/07/29 02:20:35;;;;;;;;;;;20.00;99.90;;;;;;7333340;19;108981;-65
2023/07/29 02:23:02;;;;;;;;;;;20.00;99.90;;;;;;7335045;19;109849;-65
2023/07/29 02:25:29;;;;;;;;;;;20.00;99.90;;;;;;7330380;19;108715;-65
2023/07/29 02:27:56;;;;;;;;;;;20.00;99.90;;;;;;7332035;19;108838;-65
2023/07/29 02:30:23;;;;;;;;;;;20.00;99.90;;;;;;7329228;19;110783;-65
2023/07/29 02:32:50;;;;;;;;;;;20.00;99.90;;;;;;7329276;19;108604;-64
2023/07/29 02:35:18;;;;;;;;;;;19.90;99.90;;;;;;7330723;19;109003;-65
2023/07/29 02:37:45;;;;;;;;;;;19.90;99.90;;;;;;7336739;19;109803;-67
2023/07/29 02:40:13;;;;;;;;;;;19.90;99.90;;;;;;7334261;19;108302;-65
2023/07/29 02:42:40;;;;;;;;;;;19.90;99.90;;;;;;7330423;19;110956;-64
2023/07/29 02:45:09;;;;;;;;;;;19.90;99.90;;;;;;7329330;19;108964;-65
2023/07/29 02:47:37;;;;;;;;;;;19.80;99.90;;;;;;7333930;19;109413;-65
2023/07/29 02:50:05;;;;;;;;;;;19.80;99.90;;;;;;7332638;19;110750;-66
2023/07/29 02:52:32;;;;;;;;;;;19.80;99.90;;;;;;7331164;19;108632;-65
2023/07/29 02:54:59;;;;;;;;;;;19.70;99.90;;;;;;7333767;19;109269;-65
2023/07/29 02:57:26;;;;;;;;;;;19.70;99.90;;;;;;7324139;19;111577;-67
2023/07/29 02:59:53;;;;;;;;;;;19.70;99.90;;;;;;7339415;19;109064;-64
2023/07/29 03:02:20;;;;;;;;;;;19.70;99.90;;;;;;7328898;19;109105;-65
2023/07/29 03:04:47;;;;;;;;;;;19.70;99.90;;;;;;7332456;19;109874;-65
2023/07/29 03:07:15;;;;;;;;;;;19.60;99.90;;;;;;7331241;19;109110;-65
2023/07/29 03:09:44;;;;;;;;;;;19.60;99.90;;;;;;7327672;19;110129;-64
2023/07/29 03:12:11;;;;;;;;;;;19.60;99.90;;;;;;7331663;19;109769;-65
2023/07/29 03:14:38;;;;;;;;;;;19.60;99.90;;;;;;7330591;19;108874;-65
2023/07/29 03:17:06;;;;;;;;;;;19.60;99.90;;;;;;7331230;19;109760;-65
2023/07/29 03:19:34;;;;;;;;;;;19.60;99.90;;;;;;7336314;19;109592;-64
2023/07/29 03:22:02;;;;;;;;;;;19.60;99.90;;;;;;7326244;19;109374;-65
2023/07/29 03:24:29;;;;;;;;;;;19.60;99.90;;;;;;7332496;19;109695;-65
2023/07/29 03:26:56;;;;;;;;;;;19.50;99.90;;;;;;7334489;19;108999;-65
2023/07/29 03:29:26;;;;;;;;;;;19.50;99.90;;;;;;7331411;19;109583;-67
2023/07/29 03:31:54;;;;;;;;;;;19.40;99.90;;;;;;7327037;19;108577;-65
2023/07/29 03:34:22;;;;;;;;;;;19.40;99.90;;;;;;7329258;19;108625;-64
2023/07/29 03:36:50;;;;;;;;;;;19.30;99.90;;;;;;7332479;19;109162;-65
2023/07/29 03:39:17;;;;;;;;;;;19.30;99.90;;;;;;7338178;19;108771;-65
2023/07/29 03:41:44;;;;;;;;;;;19.20;99.90;;;;;;7341686;19;109316;-66
2023/07/29 03:44:11;;;;;;;;;;;19.30;99.90;;;;;;7337033;19;109231;-65
2023/07/29 03:46:38;;;;;;;;;;;19.30;99.90;;;;;;7336894;19;110806;-66
2023/07/29 03:49:06;;;;;;;;;;;19.30;99.90;;;;;;7336320;19;109496;-65
2023/07/29 03:51:33;;;;;;;;;;;19.30;99.90;;;;;;7333777;19;109578;-66
2023/07/29 03:54:00;;;;;;;;;;;19.30;99.90;;;;;;7337615;19;108894;-66
2023/07/29 03:56:28;;;;;;;;;;;19.30;99.90;;;;;;7335010;19;109817;-66
2023/07/29 03:59:02;;;;;;;;;;;19.30;99.90;;;;;;7337022;19;108413;-66
2023/07/29 04:01:30;;;;;;;;;;;19.30;99.90;;;;;;7338186;19;109296;-65
2023/07/29 04:03:58;;;;;;;;;;;19.30;99.90;;;;;;7341390;19;109215;-66
2023/07/29 04:06:25;;;;;;;;;;;19.20;99.90;;;;;;7337526;19;108536;-65
2023/07/29 04:08:52;;;;;;;;;;;19.20;99.90;;;;;;7332824;19;110458;-65
2023/07/29 04:11:19;;;;;;;;;;;19.20;99.90;;;;;;7336173;19;109171;-65
2023/07/29 04:13:47;;;;;;;;;;;19.20;99.90;;;;;;7336372;19;109418;-65
2023/07/29 04:16:14;;;;;;;;;;;19.20;99.90;;;;;;7338284;19;108411;-65
2023/07/29 04:18:41;;;;;;;;;;;19.20;99.90;;;;;;7336076;19;109028;-65
2023/07/29 04:21:08;;;;;;;;;;;19.10;99.90;;;;;;7337444;19;109189;-65
2023/07/29 04:23:35;;;;;;;;;;;19.10;99.90;;;;;;7332898;19;110458;-65
2023/07/29 04:26:02;;;;;;;;;;;19.20;99.90;;;;;;7344613;19;108462;-65
2023/07/29 04:28:30;;;;;;;;;;;19.10;99.90;;;;;;7337289;19;109594;-65
2023/07/29 04:30:57;;;;;;;;;;;19.10;99.90;;;;;;7334480;19;109655;-65
2023/07/29 04:33:25;;;;;;;;;;;19.10;99.90;;;;;;7335922;19;108664;-65
2023/07/29 04:35:52;;;;;;;;;;;19.10;99.90;;;;;;7333783;19;109082;-67
2023/07/29 04:38:20;;;;;;;;;;;19.10;99.90;;;;;;7337879;19;109112;-65
2023/07/29 04:40:51;;;;;;;;;;;19.10;99.90;;;;;;7332650;19;109616;-65
2023/07/29 04:43:20;;;;;;;;;;;19.20;99.90;;;;;;7335480;19;110082;-65
2023/07/29 04:45:47;;;;;;;;;;;19.10;99.90;;;;;;7330380;19;109881;-65
2023/07/29 04:48:14;;;;;;;;;;;19.10;99.90;;;;;;7338465;19;109883;-65
2023/07/29 04:50:41;;;;;;;;;;;19.20;99.90;;;;;;7332448;19;109984;-65
2023/07/29 04:53:08;;;;;;;;;;;19.20;99.90;;;;;;7335240;19;110396;-65
2023/07/29 04:55:36;;;;;;;;;;;19.20;99.90;;;;;;7332466;19;110435;-67
2023/07/29 04:58:04;;;;;;;;;;;19.20;99.90;;;;;;7333468;19;113262;-65
2023/07/29 05:00:31;;;;;;;;;;;19.10;99.90;;;;;;7333752;19;109339;-65
2023/07/29 05:02:58;;;;;;;;;;;19.10;99.90;;;;;;7331734;19;109940;-65
2023/07/29 05:05:25;;;;;;;;;;;19.20;99.90;;;;;;7332404;19;108794;-66
2023/07/29 05:07:52;;;;;;;;;;;19.20;99.90;;;;;;7340001;19;110597;-66
2023/07/29 05:10:20;;;;;;;;;;;19.20;99.90;;;;;;7332436;19;110345;-66
2023/07/29 05:12:47;;;;;;;;;;;19.20;99.90;;;;;;7332089;19;109429;-65
2023/07/29 05:15:14;;;;;;;;;;;19.20;99.90;;;;;;7332518;19;109120;-66
2023/07/29 05:17:41;;;;;;;;;;;19.20;99.90;;;;;;7331043;19;110344;-66
2023/07/29 05:20:09;;;;;;;;;;;19.20;99.90;;;;;;7335074;19;109026;-66
2023/07/29 05:22:36;;;;;;;;;;;19.20;99.90;;;;;;7334800;19;109763;-66
2023/07/29 05:25:04;;;;;;;;;;;19.30;99.90;;;;;;7333532;19;109636;-66
2023/07/29 05:27:31;;;;;;;;;;;19.30;99.90;;;;;;7334380;19;109038;-66
2023/07/29 05:29:58;;;;;;;;;;;19.30;99.90;;;;;;7337213;19;112599;-66
2023/07/29 05:32:26;;;;;;;;;;;19.30;99.90;;;;;;7331577;19;110377;-66
2023/07/29 05:34:53;;;;;;;;;;;19.30;99.90;;;;;;7334691;19;109823;-66
2023/07/29 05:37:20;;;;;;;;;;;19.40;99.90;;;;;;7331410;19;108841;-66
2023/07/29 05:39:47;;;;;;;;;;;19.40;99.90;;;;;;7332684;19;108584;-66
2023/07/29 05:42:14;;;;;;;;;;;19.50;99.90;;;;;;7335297;19;109159;-66
2023/07/29 05:44:42;;;;;;;;;;;19.50;99.90;;;;;;7330089;19;108436;-66
2023/07/29 05:47:09;;;;;;;;;;;19.50;99.90;;;;;;7333117;19;108693;-66
2023/07/29 05:49:37;;;;;;;;;;;19.60;99.90;;;;;;7328754;19;109246;-68
2023/07/29 05:52:04;;;;;;;;;;;19.70;99.90;;;;;;7339347;19;109738;-68
2023/07/29 05:54:31;;;;;;;;;;;19.70;99.90;;;;;;7327282;19;110582;-68
2023/07/29 05:56:59;;;;;;;;;;;19.80;99.90;;;;;;7334017;19;108955;-67
2023/07/29 05:59:29;;;;;;;;;;;19.80;99.90;;;;;;7330754;19;109423;-68
2023/07/29 06:01:56;;;;;;;;;;;19.80;99.90;;;;;;7332608;19;109155;-67
2023/07/29 06:04:23;;;;;;;;;;;19.90;99.90;;;;;;7333297;19;108785;-67
2023/07/29 06:06:51;;;;;;;;;;;19.90;99.90;;;;;;7333411;19;109176;-69
2023/07/29 06:09:19;;;;;;;;;;;19.90;99.90;;;;;;7333657;19;110726;-68
2023/07/29 06:11:49;;;;;;;;;;;19.90;99.90;;;;;;7331503;19;108556;-68
2023/07/29 06:14:19;;;;;;;;;;;19.90;99.90;;;;;;7336902;19;109159;-67
2023/07/29 06:16:46;;;;;;;;;;;19.90;99.90;;;;;;7328950;19;110034;-68
2023/07/29 06:19:13;;;;;;;;;;;19.90;99.90;;;;;;7330874;19;108753;-67
2023/07/29 06:21:40;;;;;;;;;;;20.00;99.90;;;;;;7330589;19;109418;-67
2023/07/29 06:24:07;;;;;;;;;;;20.00;99.90;;;;;;7335585;19;108961;-67
2023/07/29 06:26:36;;;;;;;;;;;20.10;99.90;;;;;;7332010;19;108280;-67
2023/07/29 06:29:04;;;;;;;;;;;20.20;99.90;;;;;;7333105;19;110504;-67
2023/07/29 06:31:32;;;;;;;;;;;20.30;99.90;;;;;;7329075;19;109234;-67
2023/07/29 06:33:59;;;;;;;;;;;20.40;99.90;;;;;;7331087;19;109930;-67
2023/07/29 06:36:26;;;;;;;;;;;20.60;99.90;;;;;;7335323;19;110151;-68
2023/07/29 06:38:54;;;;;;;;;;;20.60;99.90;;;;;;7335491;19;108915;-69
2023/07/29 06:41:20;;;;;;;;;;;20.70;99.90;;;;;;7330017;19;109994;-68
2023/07/29 06:43:48;;;;;;;;;;;20.70;99.90;;;;;;7332800;19;108557;-68
2023/07/29 06:46:15;;;;;;;;;;;20.70;99.90;;;;;;7330137;19;109958;-68
2023/07/29 06:48:42;;;;;;;;;;;20.70;99.90;;;;;;7328911;19;110796;-70
2023/07/29 06:51:09;;;;;;;;;;;20.70;99.90;;;;;;7330506;19;110804;-70
2023/07/29 06:53:36;;;;;;;;;;;20.80;99.90;;;;;;7334069;19;108954;-68
2023/07/29 06:56:04;;;;;;;;;;;20.90;99.90;;;;;;7326547;19;110284;-74
2023/07/29 06:58:31;;;;;;;;;;;21.00;99.90;;;;;;7334692;19;109071;-69
2023/07/29 07:00:59;;;;;;;;;;;21.00;99.90;;;;;;7328961;19;112607;-70
2023/07/29 07:03:26;;;;;;;;;;;21.00;99.90;;;;;;7329453;19;109331;-67
2023/07/29 07:05:53;;;;;;;;;;;21.10;99.90;;;;;;7328328;19;109466;-68
2023/07/29 07:08:20;;;;;;;;;;;21.00;99.90;;;;;;7330294;19;109159;-68
2023/07/29 07:10:47;;;;;;;;;;;21.00;99.90;;;;;;7329738;19;108866;-68
2023/07/29 07:13:14;;;;;;;;;;;21.10;99.90;;;;;;7334717;19;108610;-68
2023/07/29 07:15:41;;;;;;;;;;;21.10;99.90;;;;;;7337282;19;109108;-67
2023/07/29 07:18:09;;;;;;;;;;;21.10;99.90;;;;;;7343819;19;108790;-68
2023/07/29 07:20:36;;;;;;;;;;;21.20;99.90;;;;;;7338769;19;109687;-67
2023/07/29 07:23:05;;;;;;;;;;;21.20;99.90;;;;;;7335301;19;108932;-68
2023/07/29 07:25:32;;;;;;;;;;;21.30;99.90;;;;;;7334920;19;110603;-67
2023/07/29 07:27:59;;;;;;;;;;;21.40;99.90;;;;;;7332924;19;109447;-67
2023/07/29 07:30:26;;;;;;;;;;;21.50;99.90;;;;;;7337987;19;108616;-67
2023/07/29 07:32:53;;;;;;;;;;;21.50;99.90;;;;;;7335207;19;110014;-68
2023/07/29 07:35:20;;;;;;;;;;;21.60;99.90;;;;;;7337767;19;109538;-67
2023/07/29 07:37:47;;;;;;;;;;;21.60;99.90;;;;;;7340869;19;110013;-67
2023/07/29 07:40:14;;;;;;;;;;;21.60;99.90;;;;;;7344370;19;109184;-67
2023/07/29 07:42:41;;;;;;;;;;;21.70;99.90;;;;;;7334801;19;109824;-67
2023/07/29 07:45:09;;;;;;;;;;;21.70;99.90;;;;;;7336508;19;108907;-67
2023/07/29 07:47:36;;;;;;;;;;;21.70;99.90;;;;;;7337982;19;109440;-67
2023/07/29 07:50:03;;;;;;;;;;;21.60;99.90;;;;;;7332204;19;110694;-67
2023/07/29 07:52:30;;;;;;;;;;;21.60;99.90;;;;;;7332749;19;109022;-67
2023/07/29 07:54:57;;;;;;;;;;;21.70;99.90;;;;;;7338773;19;109140;-67
2023/07/29 07:57:24;;;;;;;;;;;21.70;99.90;;;;;;7335385;19;110326;-67
2023/07/29 07:59:52;;;;;;;;;;;21.70;99.90;;;;;;7338830;19;109134;-68
2023/07/29 08:02:20;;;;;;;;;;;21.80;99.90;;;;;;7339802;19;109152;-68
2023/07/29 08:04:47;;;;;;;;;;;21.80;99.90;;;;;;7337812;19;109339;-67
2023/07/29 08:07:15;;;;;;;;;;;21.80;99.90;;;;;;7336516;19;109107;-67
2023/07/29 08:09:42;;;;;;;;;;;21.80;99.90;;;;;;7337061;19;110446;-67
2023/07/29 08:12:09;;;;;;;;;;;21.90;99.90;;;;;;7336596;19;108704;-68
2023/07/29 08:14:36;;;;;;;;;;;22.00;99.90;;;;;;7337264;19;109551;-68
2023/07/29 08:17:04;;;;;;;;;;;22.00;99.90;;;;;;7336817;19;109130;-67
2023/07/29 08:19:31;;;;;;;;;;;22.10;99.90;;;;;;7337449;19;109316;-67
2023/07/29 08:21:58;;;;;;;;;;;22.10;99.90;;;;;;7338626;19;113710;-68
2023/07/29 08:24:25;;;;;;;;;;;22.20;99.90;;;;;;7336386;19;109533;-67
2023/07/29 08:26:53;;;;;;;;;;;22.20;99.90;;;;;;7335779;19;110810;-67
2023/07/29 08:29:20;;;;;;;;;;;22.30;99.90;;;;;;7336541;19;108417;-68
2023/07/29 08:31:47;;;;;;;;;;;22.40;99.90;;;;;;7334618;19;110163;-67
2023/07/29 08:34:14;;;;;;;;;;;22.50;99.90;;;;;;7334014;19;110281;-67
2023/07/29 08:36:42;;;;;;;;;;;22.60;99.90;;;;;;7337143;19;110209;-67
2023/07/29 08:39:10;;;;;;;;;;;22.70;99.90;;;;;;7336583;19;108608;-67
2023/07/29 08:41:41;;;;;;;;;;;22.70;99.90;;;;;;7336288;19;110428;-67
2023/07/29 08:44:28;;;;;;;;;;;22.90;99.90;;;;;;7335877;19;109208;-67
2023/07/29 08:46:57;;;;;;;;;;;23.00;99.90;;;;;;7340969;19;109441;-67
2023/07/29 08:49:24;;;;;;;;;;;23.20;99.90;;;;;;7334348;19;108956;-67
2023/07/29 08:51:53;;;;;;;;;;;23.40;99.90;;;;;;7336041;19;109177;-68
2023/07/29 08:54:20;;;;;;;;;;;23.40;99.90;;;;;;7335608;19;110193;-67
2023/07/29 08:56:48;;;;;;;;;;;23.50;99.90;;;;;;7337646;19;108505;-67
2023/07/29 08:59:17;;;;;;;;;;;23.50;99.90;;;;;;7332536;19;109212;-67
2023/07/29 09:01:44;;;;;;;;;;;23.60;99.90;;;;;;7335239;19;109122;-68
2023/07/29 09:04:11;;;;;;;;;;;23.70;99.90;;;;;;7337014;19;108974;-68
2023/07/29 09:06:39;;;;;;;;;;;23.60;99.90;;;;;;7334781;19;110225;-67
2023/07/29 09:09:07;;;;;;;;;;;23.70;99.90;;;;;;7341367;19;109541;-67
2023/07/29 09:11:35;;;;;;;;;;;23.70;99.90;;;;;;7333866;19;108545;-68
2023/07/29 09:14:02;;;;;;;;;;;23.80;99.90;;;;;;7334517;19;109111;-67
2023/07/29 09:16:29;;;;;;;;;;;23.80;99.90;;;;;;7334998;19;109036;-70
2023/07/29 09:19:00;;;;;;;;;;;23.80;99.90;;;;;;7336785;19;109285;-67
2023/07/29 09:21:28;;;;;;;;;;;23.80;99.90;;;;;;7334727;19;109654;-68
2023/07/29 09:23:55;;;;;;;;;;;23.90;99.90;;;;;;7334494;19;108988;-68
2023/07/29 09:26:24;;;;;;;;;;;24.00;99.90;;;;;;7334835;19;109774;-67
2023/07/29 09:28:57;;;;;;;;;;;24.00;99.90;;;;;;7342592;19;109082;-67
2023/07/29 09:31:25;;;;;;;;;;;24.00;99.90;;;;;;7334409;19;110737;-67
2023/07/29 09:33:59;;;;;;;;;;;24.00;99.90;;;;;;7336329;19;110188;-67
2023/07/29 09:36:27;;;;;;;;;;;24.10;99.90;;;;;;7333202;19;108983;-68
2023/07/29 09:38:54;;;;;;;;;;;24.00;99.90;;;;;;7330598;19;109032;-67
2023/07/29 09:41:23;;;;;;;;;;;24.00;99.90;;;;;;7333066;19;110781;-67
2023/07/29 09:43:55;;;;;;;;;;;24.10;99.90;;;;;;7335093;19;109762;-67
2023/07/29 09:46:23;;;;;;;;;;;24.10;99.90;;;;;;7335578;19;108582;-67
2023/07/29 09:48:52;;;;;;;;;;;24.20;99.90;;;;;;7332249;19;109415;-67
2023/07/29 09:51:19;;;;;;;;;;;24.20;99.90;;;;;;7336619;19;108767;-67
2023/07/29 09:53:47;;;;;;;;;;;24.10;99.90;;;;;;7330908;19;109869;-67
2023/07/29 09:56:15;;;;;;;;;;;24.10;99.90;;;;;;7338248;19;109467;-67
2023/07/29 09:58:43;;;;;;;;;;;24.10;99.90;;;;;;7330280;19;108898;-68
2023/07/29 10:01:11;;;;;;;;;;;24.10;99.90;;;;;;7329023;19;109786;-68
2023/07/29 10:03:38;;;;;;;;;;;23.90;99.90;;;;;;7332646;19;112660;-69
2023/07/29 10:06:06;;;;;;;;;;;23.90;99.90;;;;;;7333725;19;109903;-67
2023/07/29 10:08:38;;;;;;;;;;;23.90;99.90;;;;;;7334195;19;110575;-67
2023/07/29 10:11:06;;;;;;;;;;;23.80;99.90;;;;;;7332030;19;108993;-67
2023/07/29 10:13:34;;;;;;;;;;;23.90;99.90;;;;;;7337625;19;110015;-67
2023/07/29 10:16:04;;;;;;;;;;;23.90;99.90;;;;;;7334899;19;108339;-68
2023/07/29 10:18:33;;;;;;;;;;;24.00;99.90;;;;;;7331320;19;110572;-67
2023/07/29 10:21:01;;;;;;;;;;;24.10;99.90;;;;;;7332427;19;110174;-68
2023/07/29 10:23:30;;;;;;;;;;;24.20;99.90;;;;;;7331507;19;108994;-67
2023/07/29 10:26:03;;;;;;;;;;;24.20;99.90;;;;;;7332752;19;110078;-67
2023/07/29 10:28:31;;;;;;;;;;;24.20;99.90;;;;;;7333402;19;110381;-69
2023/07/29 10:30:59;;;;;;;;;;;24.30;99.90;;;;;;7332645;19;110142;-66
2023/07/29 10:33:27;;;;;;;;;;;24.30;99.90;;;;;;7329795;19;108686;-67
2023/07/29 10:35:54;;;;;;;;;;;24.40;99.90;;;;;;7336137;19;110628;-68
2023/07/29 10:38:23;;;;;;;;;;;24.40;99.90;;;;;;7333576;19;110524;-68
2023/07/29 10:40:56;;;;;;;;;;;24.30;99.90;;;;;;7329794;19;110674;-68
2023/07/29 10:43:25;;;;;;;;;;;24.40;99.90;;;;;;7331847;19;109405;-67
2023/07/29 10:45:52;;;;;;;;;;;24.50;99.90;;;;;;7328792;19;109131;-67
2023/07/29 10:48:40;;;;;;;;;;;24.60;99.90;;;;;;7340662;19;110131;-67
2023/07/29 10:51:26;;;;;;;;;;;24.80;99.90;;;;;;7339537;19;109008;-67
2023/07/29 10:53:56;;;;;;;;;;;24.80;99.90;;;;;;7336371;19;109162;-67
2023/07/29 10:56:37;;;;;;;;;;;24.90;99.90;;;;;;7339382;19;109180;-67
2023/07/29 10:59:16;;;;;;;;;;;24.90;99.90;;;;;;7342914;19;109301;-67
2023/07/29 11:01:50;;;;;;;;;;;24.90;99.90;;;;;;7337441;19;112535;-67
2023/07/29 11:04:23;;;;;;;;;;;24.90;99.90;;;;;;7341235;19;108860;-67
2023/07/29 11:07:08;;;;;;;;;;;25.00;99.90;;;;;;7338099;19;108894;-66
2023/07/29 11:09:42;;;;;;;;;;;25.10;99.90;;;;;;7339207;19;109106;-70
2023/07/29 11:12:28;;;;;;;;;;;25.40;99.90;;;;;;7338339;19;110150;-67
2023/07/29 11:14:55;;;;;;;;;;;25.50;99.90;;;;;;7336859;19;109396;-66
2023/07/29 11:17:23;;;;;;;;;;;25.60;99.90;;;;;;7337780;19;110676;-67
2023/07/29 11:19:50;;;;;;;;;;;25.80;99.90;;;;;;7338478;19;109340;-67
2023/07/29 11:22:18;;;;;;;;;;;25.80;99.90;;;;;;7345123;19;108890;-68
2023/07/29 11:24:45;;;;;;;;;;;26.00;99.90;;;;;;7335630;19;109153;-68
2023/07/29 11:27:12;;;;;;;;;;;26.00;99.90;;;;;;7339132;19;109005;-67
2023/07/29 11:29:40;;;;;;;;;;;26.20;99.90;;;;;;7337914;19;109215;-67
2023/07/29 11:32:07;;;;;;;;;;;26.20;99.90;;;;;;7340888;19;108797;-67
2023/07/29 11:34:34;;;;;;;;;;;26.00;99.90;;;;;;7337631;19;109120;-68
2023/07/29 11:37:01;;;;;;;;;;;25.80;99.90;;;;;;7336644;19;110448;-68
2023/07/29 11:39:29;;;;;;;;;;;25.70;99.90;;;;;;7332123;19;108944;-67
2023/07/29 11:41:56;;;;;;;;;;;25.40;99.90;;;;;;7341425;19;108818;-67
2023/07/29 11:44:23;;;;;;;;;;;25.20;99.90;;;;;;7335592;19;110842;-67
2023/07/29 11:46:50;;;;;;;;;;;24.80;99.90;;;;;;7338199;19;108684;-67
2023/07/29 11:49:17;;;;;;;;;;;24.60;99.90;;;;;;7331984;19;109844;-67
2023/07/29 11:51:44;;;;;;;;;;;24.40;99.90;;;;;;7341088;19;109137;-67
2023/07/29 11:54:12;;;;;;;;;;;24.30;99.90;;;;;;7337383;19;110872;-68
2023/07/29 11:56:39;;;;;;;;;;;24.10;99.90;;;;;;7344395;19;110826;-66
2023/07/29 11:59:06;;;;;;;;;;;23.90;99.90;;;;;;7338386;19;109063;-67
2023/07/29 12:01:34;;;;;;;;;;;23.80;99.90;;;;;;7341419;19;110551;-67
2023/07/29 12:04:01;;;;;;;;;;;23.60;99.90;;;;;;7349649;19;109099;-67
2023/07/29 12:06:31;;;;;;;;;;;23.40;99.90;;;;;;7340850;19;109465;-68
2023/07/29 12:08:58;;;;;;;;;;;23.20;99.90;;;;;;7341463;19;109393;-69
2023/07/29 12:11:25;;;;;;;;;;;23.10;99.90;;;;;;7346291;19;108744;-68
2023/07/29 12:13:55;;;;;;;;;;;23.10;99.90;;;;;;7345340;19;108421;-69
2023/07/29 12:16:23;;;;;;;;;;;23.10;99.90;;;;;;7343525;19;109787;-67
2023/07/29 12:18:50;;;;;;;;;;;23.10;99.90;;;;;;7346341;19;108853;-68
2023/07/29 12:21:19;;;;;;;;;;;23.20;99.90;;;;;;7346805;19;109616;-67
2023/07/29 12:23:46;;;;;;;;;;;23.30;99.90;;;;;;7347922;19;109438;-70
2023/07/29 12:26:13;;;;;;;;;;;23.30;99.90;;;;;;7349256;19;108596;-68
2023/07/29 12:28:44;;;;;;;;;;;23.40;99.90;;;;;;7344649;19;109788;-69
2023/07/29 12:31:11;;;;;;;;;;;23.40;99.90;;;;;;7342971;19;109210;-68
2023/07/29 12:33:39;;;;;;;;;;;23.60;99.90;;;;;;7344813;19;109817;-67
2023/07/29 12:36:06;;;;;;;;;;;23.70;99.90;;;;;;7342673;19;109776;-66
2023/07/29 12:38:33;;;;;;;;;;;23.80;99.90;;;;;;7342087;19;110163;-68
2023/07/29 12:41:00;;;;;;;;;;;23.90;99.90;;;;;;7334212;19;108564;-67
2023/07/29 12:43:28;;;;;;;;;;;24.00;99.90;;;;;;7332628;19;110030;-68
2023/07/29 12:45:56;;;;;;;;;;;24.20;99.90;;;;;;7333688;19;110625;-68
2023/07/29 12:48:23;;;;;;;;;;;24.30;99.90;;;;;;7336345;19;109678;-68
2023/07/29 12:50:51;;;;;;;;;;;24.40;99.90;;;;;;7336170;19;108518;-68
2023/07/29 12:53:18;;;;;;;;;;;24.60;99.90;;;;;;7337019;19;112694;-68
2023/07/29 12:55:45;;;;;;;;;;;24.80;99.90;;;;;;7331704;19;110381;-69
2023/07/29 12:58:12;;;;;;;;;;;25.10;99.90;;;;;;7334182;19;109250;-68
2023/07/29 13:00:40;;;;;;;;;;;25.20;99.90;;;;;;7332380;19;109987;-67
2023/07/29 13:03:07;;;;;;;;;;;25.40;99.90;;;;;;7333766;19;109731;-68
2023/07/29 13:05:34;;;;;;;;;;;25.50;99.90;;;;;;7334000;19;111203;-68
2023/07/29 13:08:01;;;;;;;;;;;25.70;99.90;;;;;;7333919;19;110466;-68
2023/07/29 13:10:28;;;;;;;;;;;25.80;99.90;;;;;;7336879;19;112065;-68
2023/07/29 13:12:55;;;;;;;;;;;26.00;99.90;;;;;;7335288;19;108843;-68
2023/07/29 13:15:22;;;;;;;;;;;26.10;99.90;;;;;;7334087;19;110615;-67
2023/07/29 13:17:49;;;;;;;;;;;26.30;99.90;;;;;;7334076;19;109263;-67
2023/07/29 13:20:17;;;;;;;;;;;26.40;99.90;;;;;;7334510;19;109208;-68
2023/07/29 13:22:44;;;;;;;;;;;26.40;99.90;;;;;;7332751;19;109396;-68
2023/07/29 13:25:11;;;;;;;;;;;26.50;99.90;;;;;;7334962;19;109453;-67
2023/07/29 13:27:38;;;;;;;;;;;26.70;99.90;;;;;;7332845;19;110068;-69
2023/07/29 13:30:05;;;;;;;;;;;26.70;99.90;;;;;;7332461;19;109567;-68
2023/07/29 13:32:32;;;;;;;;;;;26.80;99.90;;;;;;7337800;19;109320;-68
2023/07/29 13:34:59;;;;;;;;;;;27.00;99.90;;;;;;7332491;19;108935;-67
2023/07/29 13:37:26;;;;;;;;;;;27.20;99.90;;;;;;7332969;19;109205;-67
2023/07/29 13:39:53;;;;;;;;;;;27.40;99.90;;;;;;7333355;19;109145;-67
2023/07/29 13:42:21;;;;;;;;;;;27.60;99.90;;;;;;7331050;19;109174;-69
2023/07/29 13:44:48;;;;;;;;;;;27.70;99.90;;;;;;7332338;19;108890;-67
2023/07/29 13:47:15;;;;;;;;;;;27.70;99.90;;;;;;7331769;19;109255;-67
2023/07/29 13:49:42;;;;;;;;;;;27.80;99.90;;;;;;7333211;19;112591;-68
2023/07/29 13:52:09;;;;;;;;;;;28.00;99.90;;;;;;7333682;19;109082;-67
2023/07/29 13:54:38;;;;;;;;;;;28.00;99.90;;;;;;7331882;19;110230;-67
2023/07/29 13:57:06;;;;;;;;;;;28.10;99.90;;;;;;7324397;19;109007;-67
2023/07/29 13:59:33;;;;;;;;;;;28.20;99.90;;;;;;7328294;19;110861;-67
2023/07/29 14:02:00;;;;;;;;;;;28.20;99.90;;;;;;7330583;19;108870;-68
2023/07/29 14:04:29;;;;;;;;;;;28.20;99.90;;;;;;7331766;19;108544;-67
2023/07/29 14:06:56;;;;;;;;;;;28.10;99.90;;;;;;7332420;19;109178;-68
2023/07/29 14:09:26;;;;;;;;;;;28.00;99.90;;;;;;7328448;19;110393;-67
2023/07/29 14:11:54;;;;;;;;;;;27.80;99.90;;;;;;7331467;19;108745;-68
2023/07/29 14:14:21;;;;;;;;;;;27.80;99.90;;;;;;7334911;19;109338;-68
2023/07/29 14:16:49;;;;;;;;;;;27.60;99.90;;;;;;7328152;19;108819;-67
2023/07/29 14:19:16;;;;;;;;;;;27.50;99.90;;;;;;7327528;19;109086;-67